Time;durP1;ratioP1;P1;durP2;ratioP2;P2;SDS_P1;SDS_P2;PMS_P1;PMS_P2;Temp;Humidity;BMP_temperature;BMP_pressure;BME280_temperature;BME280_humidity;BME280_pressure;Samples;Min_cycle;Max_cycle;Signal;HPM_P1;HPM_P2
2021/07/18 00:01:27;;;;;;;3.08;1.95;;;;;;;18.21;74.31;102165.25;5018689;28;20072;-74
2021/07/18 00:03:52;;;;;;;7.03;2.00;;;;;;;18.17;74.48;102164.78;5024253;28;20033;-74
2021/07/18 00:06:18;;;;;;;5.78;2.05;;;;;;;18.15;74.41;102164.13;5033220;28;20406;-73
2021/07/18 00:08:43;;;;;;;4.53;2.00;;;;;;;18.15;74.52;102161.50;5019674;28;20510;-73
2021/07/18 00:11:08;;;;;;;5.80;2.05;;;;;;;18.12;74.49;102158.41;5042572;28;20041;-73
2021/07/18 00:13:34;;;;;;;5.40;1.88;;;;;;;18.09;74.52;102164.81;5027111;28;20049;-73
2021/07/18 00:15:59;;;;;;;3.40;1.80;;;;;;;18.07;74.68;102166.81;5023192;28;20049;-74
2021/07/18 00:18:25;;;;;;;5.20;1.90;;;;;;;18.05;74.68;102168.78;5021476;28;20030;-73
2021/07/18 00:20:50;;;;;;;6.97;2.20;;;;;;;18.03;74.66;102163.72;5028061;28;20033;-73
2021/07/18 00:23:17;;;;;;;4.72;2.00;;;;;;;18.02;74.49;102162.06;5027460;28;20049;-73
2021/07/18 00:25:43;;;;;;;6.90;2.35;;;;;;;17.99;74.67;102161.59;5009818;28;20098;-73
2021/07/18 00:28:09;;;;;;;6.72;1.98;;;;;;;17.96;74.76;102152.25;5026438;28;20116;-73
2021/07/18 00:30:34;;;;;;;4.35;1.70;;;;;;;17.91;75.14;102154.56;5019554;28;20087;-73
2021/07/18 00:33:00;;;;;;;3.78;2.08;;;;;;;17.83;75.52;102159.84;5023267;28;20033;-73
2021/07/18 00:35:25;;;;;;;5.10;1.80;;;;;;;17.81;75.72;102159.19;5021341;28;20029;-74
2021/07/18 00:37:51;;;;;;;3.42;1.90;;;;;;;17.80;75.65;102147.88;5023730;28;20133;-73
2021/07/18 00:40:16;;;;;;;4.05;2.13;;;;;;;17.79;75.36;102156.75;5024758;28;20063;-73
2021/07/18 00:42:42;;;;;;;8.23;2.00;;;;;;;17.79;75.37;102155.94;5030585;28;20036;-73
2021/07/18 00:45:09;;;;;;;5.03;2.10;;;;;;;17.79;75.34;102156.75;5020056;28;20049;-73
2021/07/18 00:47:39;;;;;;;6.03;2.20;;;;;;;17.78;75.10;102157.75;5026331;28;20037;-73
2021/07/18 00:50:08;;;;;;;5.35;2.58;;;;;;;17.78;75.07;102149.88;5027780;28;20045;-73
2021/07/18 00:52:33;;;;;;;4.53;1.77;;;;;;;17.75;75.09;102155.44;5029493;28;20115;-73
2021/07/18 00:54:59;;;;;;;3.63;2.13;;;;;;;17.74;75.19;102153.00;5002557;28;20143;-73
2021/07/18 00:57:24;;;;;;;4.85;2.50;;;;;;;17.69;75.07;102149.06;5026722;28;20030;-72
2021/07/18 00:59:51;;;;;;;5.20;2.60;;;;;;;17.68;75.11;102157.91;5027501;28;20048;-73
2021/07/18 01:02:17;;;;;;;5.95;2.20;;;;;;;17.66;75.16;102156.47;5024034;28;20065;-73
2021/07/18 01:04:43;;;;;;;6.32;2.20;;;;;;;17.61;75.51;102151.75;5020394;28;20077;-72
2021/07/18 01:07:08;;;;;;;12.82;3.15;;;;;;;17.58;75.56;102154.69;5035041;28;20071;-72
2021/07/18 01:09:37;;;;;;;4.05;2.67;;;;;;;17.52;75.54;102156.19;5027492;28;20108;-73
2021/07/18 01:12:03;;;;;;;5.50;2.20;;;;;;;17.48;75.78;102154.91;5028788;28;20045;-73
2021/07/18 01:14:29;;;;;;;5.35;2.47;;;;;;;17.47;75.88;102160.31;5023849;28;20037;-73
2021/07/18 01:16:55;;;;;;;6.18;2.20;;;;;;;17.45;75.80;102157.84;5020321;28;20057;-73
2021/07/18 01:19:21;;;;;;;8.00;2.83;;;;;;;17.44;75.76;102144.91;5024462;28;20048;-73
2021/07/18 01:21:58;;;;;;;6.68;2.22;;;;;;;17.43;75.52;102153.75;5011963;28;20025;-73
2021/07/18 01:24:24;;;;;;;5.93;2.38;;;;;;;17.41;75.60;102151.31;5032029;28;20043;-72
2021/07/18 01:26:51;;;;;;;5.15;2.58;;;;;;;17.41;75.39;102150.50;5029305;28;20037;-73
2021/07/18 01:29:16;;;;;;;5.53;2.35;;;;;;;17.41;75.60;102147.88;5020687;28;20029;-73
2021/07/18 01:31:41;;;;;;;4.82;2.30;;;;;;;17.36;75.56;102156.22;5025938;28;20034;-72
2021/07/18 01:34:07;;;;;;;6.60;2.30;;;;;;;17.34;75.62;102149.53;5034575;28;20033;-73
2021/07/18 01:36:32;;;;;;;4.70;2.20;;;;;;;17.28;75.99;102141.34;5026956;28;20726;-73
2021/07/18 01:38:58;;;;;;;3.97;2.40;;;;;;;17.26;76.06;102137.25;5035041;28;20445;-73
2021/07/18 01:41:23;;;;;;;5.70;2.60;;;;;;;17.21;76.52;102148.22;5030534;28;20033;-73
2021/07/18 01:43:49;;;;;;;5.13;2.30;;;;;;;17.16;76.66;102147.94;5018386;28;20414;-73
2021/07/18 01:46:15;;;;;;;7.30;2.72;;;;;;;17.13;76.82;102143.03;5028187;28;20048;-73
2021/07/18 01:48:41;;;;;;;4.72;2.53;;;;;;;17.11;76.70;102140.56;5036355;28;20120;-74
2021/07/18 01:51:06;;;;;;;5.30;3.05;;;;;;;17.09;76.98;102142.53;5035399;28;20745;-73
2021/07/18 01:53:32;;;;;;;7.82;3.00;;;;;;;17.09;76.82;102136.47;5030265;28;20029;-73
2021/07/18 01:55:57;;;;;;;5.82;2.47;;;;;;;17.08;76.89;102134.81;5022937;28;20045;-73
2021/07/18 01:58:28;;;;;;;5.93;2.63;;;;;;;17.07;76.63;102131.41;5027718;28;20406;-74
2021/07/18 02:00:54;;;;;;;5.97;2.80;;;;;;;17.03;76.96;102129.28;5025734;28;20041;-74
2021/07/18 02:03:19;;;;;;;6.10;2.95;;;;;;;16.93;77.59;102126.81;5019857;28;20274;-74
2021/07/18 02:05:45;;;;;;;5.20;3.20;;;;;;;16.88;78.33;102142.25;5023217;28;20045;-74
2021/07/18 02:08:10;;;;;;;6.68;4.22;;;;;;;16.82;78.70;102138.47;5034842;28;20044;-74
2021/07/18 02:10:36;;;;;;;8.25;3.20;;;;;;;16.77;78.96;102140.72;5023946;28;20041;-74
2021/07/18 02:13:02;;;;;;;9.52;3.00;;;;;;;16.72;79.35;102138.59;5027421;28;20113;-74
2021/07/18 02:15:27;;;;;;;4.25;2.83;;;;;;;16.71;79.20;102138.78;5022037;28;20037;-74
2021/07/18 02:17:53;;;;;;;6.60;3.17;;;;;;;16.69;79.29;102141.56;5022237;28;20041;-74
2021/07/18 02:20:20;;;;;;;6.95;3.55;;;;;;;16.70;78.86;102137.94;5025948;28;20040;-74
2021/07/18 02:22:54;;;;;;;10.73;3.10;;;;;;;16.69;79.10;102141.56;5027514;28;20394;-73
2021/07/18 02:25:25;;;;;;;9.05;3.30;;;;;;;16.71;78.91;102142.22;5020333;28;20319;-74
2021/07/18 02:27:51;;;;;;;5.28;3.15;;;;;;;16.72;78.26;102135.16;5025359;28;20041;-74
2021/07/18 02:30:20;;;;;;;5.95;2.90;;;;;;;16.73;78.24;102134.19;5024088;28;20044;-74
2021/07/18 02:32:46;;;;;;;4.35;2.88;;;;;;;16.71;78.48;102130.94;5014548;28;20432;-74
2021/07/18 02:35:14;;;;;;;5.40;3.42;;;;;;;16.69;78.36;102133.69;5025309;28;20124;-73
2021/07/18 02:37:41;;;;;;;6.20;3.13;;;;;;;16.68;78.52;102137.28;5023608;28;20486;-74
2021/07/18 02:40:08;;;;;;;10.02;3.72;;;;;;;16.68;78.32;102139.91;5020544;28;20033;-74
2021/07/18 02:42:34;;;;;;;8.50;3.47;;;;;;;16.68;78.21;102136.47;5022942;28;20045;-74
2021/07/18 02:45:00;;;;;;;8.15;3.42;;;;;;;16.67;78.01;102132.22;5020794;28;20071;-73
2021/07/18 02:47:25;;;;;;;7.43;3.70;;;;;;;16.64;78.18;102128.13;5028569;28;20029;-74
2021/07/18 02:49:51;;;;;;;5.95;2.95;;;;;;;16.64;77.90;102129.94;5020329;28;20022;-74
2021/07/18 02:52:16;;;;;;;6.68;3.28;;;;;;;16.62;77.76;102124.84;5031281;28;20680;-74
2021/07/18 02:54:42;;;;;;;6.97;3.35;;;;;;;16.61;77.64;102125.81;5025302;28;20045;-74
2021/07/18 02:57:07;;;;;;;4.75;3.38;;;;;;;16.60;77.78;102124.22;5029227;28;20112;-73
2021/07/18 02:59:33;;;;;;;6.78;3.10;;;;;;;16.59;77.83;102125.19;5030130;28;20430;-74
2021/07/18 03:02:00;;;;;;;4.07;3.10;;;;;;;16.58;78.08;102120.13;5013521;28;20065;-74
2021/07/18 03:04:31;;;;;;;6.68;3.30;;;;;;;16.53;78.07;102121.41;5026326;28;20037;-74
2021/07/18 03:06:57;;;;;;;5.68;3.70;;;;;;;16.50;78.13;102118.28;5021849;28;20112;-74
2021/07/18 03:09:23;;;;;;;5.35;2.95;;;;;;;16.49;77.86;102117.50;5020771;28;20113;-73
2021/07/18 03:11:50;;;;;;;11.30;3.30;;;;;;;16.47;77.81;102118.66;5026562;28;20553;-74
2021/07/18 03:14:16;;;;;;;6.53;3.28;;;;;;;16.45;77.83;102121.41;5026862;28;20063;-75
2021/07/18 03:16:42;;;;;;;5.63;2.67;;;;;;;16.43;77.66;102123.38;5024609;28;20033;-74
2021/07/18 03:19:07;;;;;;;5.15;2.95;;;;;;;16.42;78.00;102120.91;5027103;28;21664;-74
2021/07/18 03:21:34;;;;;;;7.57;3.72;;;;;;;16.41;78.06;102117.50;5021433;28;20045;-73
2021/07/18 03:24:01;;;;;;;6.65;3.55;;;;;;;16.39;78.24;102119.47;5024973;28;20126;-73
2021/07/18 03:26:26;;;;;;;9.52;3.58;;;;;;;16.37;78.07;102113.56;5025160;28;20041;-72
2021/07/18 03:28:52;;;;;;;5.93;2.85;;;;;;;16.35;78.04;102120.78;5024194;28;20406;-73
2021/07/18 03:31:17;;;;;;;4.82;3.45;;;;;;;16.33;77.83;102122.69;5031575;28;20083;-73
2021/07/18 03:33:43;;;;;;;7.43;3.33;;;;;;;16.32;78.00;102121.09;5025846;28;20128;-73
2021/07/18 03:36:08;;;;;;;8.23;3.40;;;;;;;16.30;77.83;102128.28;5017840;28;20041;-73
2021/07/18 03:38:34;;;;;;;4.95;3.05;;;;;;;16.28;77.83;102117.97;5028023;28;20037;-72
2021/07/18 03:40:59;;;;;;;6.57;3.53;;;;;;;16.26;77.92;102117.31;5021969;28;20038;-72
2021/07/18 03:43:25;;;;;;;4.72;2.80;;;;;;;16.26;77.86;102124.34;5011115;28;20038;-72
2021/07/18 03:45:50;;;;;;;10.38;3.95;;;;;;;16.23;77.75;102120.25;5023269;28;20037;-72
2021/07/18 03:48:16;;;;;;;8.65;4.03;;;;;;;16.21;77.86;102119.59;5026564;28;20489;-72
2021/07/18 03:50:41;;;;;;;7.07;3.45;;;;;;;16.20;77.66;102124.97;5023132;28;20041;-73
2021/07/18 03:53:06;;;;;;;7.90;3.72;;;;;;;16.17;77.91;102123.50;5027117;28;20072;-71
2021/07/18 03:55:32;;;;;;;4.63;2.97;;;;;;;16.13;78.29;102125.63;5029132;28;20091;-71
2021/07/18 03:57:57;;;;;;;6.28;3.80;;;;;;;16.12;78.07;102120.53;5022994;28;20041;-72
2021/07/18 04:00:23;;;;;;;9.18;3.72;;;;;;;16.11;77.99;102134.63;5009094;28;20406;-72
2021/07/18 04:02:48;;;;;;;7.80;3.60;;;;;;;16.10;78.09;102131.16;5031817;28;20041;-71
2021/07/18 04:05:14;;;;;;;7.65;3.85;;;;;;;16.07;78.44;102131.50;5031453;28;20044;-72
2021/07/18 04:07:39;;;;;;;10.85;5.18;;;;;;;16.06;79.15;102127.25;5019663;28;20554;-72
2021/07/18 04:10:05;;;;;;;10.82;4.63;;;;;;;15.99;80.31;102123.63;5032384;28;20048;-71
2021/07/18 04:12:31;;;;;;;13.73;5.03;;;;;;;15.95;81.29;102127.53;5022954;28;20026;-72
2021/07/18 04:14:56;;;;;;;7.45;4.10;;;;;;;15.86;81.72;102129.31;5018945;28;20057;-72
2021/07/18 04:17:22;;;;;;;7.07;4.90;;;;;;;15.84;82.15;102125.22;5008509;28;20060;-72
2021/07/18 04:19:47;;;;;;;9.55;4.57;;;;;;;15.81;82.59;102128.16;5034132;28;20082;-72
2021/07/18 04:22:13;;;;;;;11.18;4.72;;;;;;;15.83;82.50;102139.28;5026378;28;20021;-71
2021/07/18 04:24:38;;;;;;;7.55;4.60;;;;;;;15.86;81.99;102137.16;5023679;28;20433;-72
2021/07/18 04:27:04;;;;;;;6.35;4.65;;;;;;;15.90;81.58;102138.50;5023113;28;20037;-72
2021/07/18 04:29:30;;;;;;;13.10;5.38;;;;;;;15.93;81.45;102134.72;5027492;28;20368;-72
2021/07/18 04:31:55;;;;;;;7.75;4.53;;;;;;;15.93;81.74;102134.72;5027654;28;20033;-71
2021/07/18 04:34:21;;;;;;;7.97;4.90;;;;;;;15.94;81.91;102128.53;5021016;28;20529;-72
2021/07/18 04:36:46;;;;;;;9.77;4.45;;;;;;;15.91;82.28;102129.66;5024086;28;20072;-71
2021/07/18 04:39:13;;;;;;;13.05;5.05;;;;;;;15.94;82.44;102131.16;5030422;28;20061;-73
2021/07/18 04:41:38;;;;;;;12.60;5.35;;;;;;;15.98;82.06;102132.47;5024298;28;20140;-71
2021/07/18 04:44:07;;;;;;;9.07;5.07;;;;;;;16.02;82.16;102146.03;5021373;28;20446;-71
2021/07/18 04:46:32;;;;;;;10.48;5.55;;;;;;;16.07;82.01;102146.41;5029466;28;20120;-72
2021/07/18 04:48:58;;;;;;;10.45;5.18;;;;;;;16.11;81.94;102153.75;5026151;28;20060;-72
2021/07/18 04:51:24;;;;;;;14.30;6.72;;;;;;;16.14;81.74;102156.06;5022747;28;20087;-72
2021/07/18 04:53:49;;;;;;;10.93;5.50;;;;;;;16.20;82.04;102161.59;5027041;28;20429;-72
2021/07/18 04:56:15;;;;;;;7.55;4.68;;;;;;;16.23;81.78;102156.06;5022998;28;20449;-73
2021/07/18 04:58:41;;;;;;;7.63;5.72;;;;;;;16.26;81.89;102156.56;5014324;28;20253;-72
2021/07/18 05:01:07;;;;;;;8.95;4.60;;;;;;;16.31;82.12;102166.53;5028539;28;20033;-72
2021/07/18 05:03:33;;;;;;;13.20;6.50;;;;;;;16.37;82.12;102163.31;5015462;28;20034;-72
2021/07/18 05:05:59;;;;;;;12.40;6.00;;;;;;;16.41;82.35;102158.56;5025314;28;20578;-72
2021/07/18 05:08:25;;;;;;;10.00;5.75;;;;;;;16.47;82.11;102156.09;5026011;28;20037;-73
2021/07/18 05:10:51;;;;;;;11.98;5.68;;;;;;;16.58;82.08;102151.53;5017620;28;20041;-73
2021/07/18 05:13:16;;;;;;;11.35;5.65;;;;;;;16.67;82.24;102158.41;5020717;28;20249;-74
2021/07/18 05:15:41;;;;;;;12.50;6.68;;;;;;;16.70;82.63;102158.91;5020811;28;20487;-73
2021/07/18 05:18:12;;;;;;;11.18;5.60;;;;;;;16.77;82.47;102161.69;5028537;28;20037;-74
2021/07/18 05:20:39;;;;;;;9.85;6.00;;;;;;;16.81;82.66;102154.31;5015490;28;20046;-73
2021/07/18 05:23:04;;;;;;;12.70;6.15;;;;;;;16.84;82.53;102152.22;5030499;28;20461;-73
2021/07/18 05:25:29;;;;;;;13.00;7.07;;;;;;;16.92;82.48;102151.41;5028652;28;20044;-73
2021/07/18 05:27:55;;;;;;;12.57;5.80;;;;;;;17.00;82.14;102147.97;5028054;28;20041;-74
2021/07/18 05:30:20;;;;;;;11.57;6.70;;;;;;;17.11;81.83;102139.75;5029304;28;20124;-74
2021/07/18 05:32:46;;;;;;;14.50;6.93;;;;;;;17.23;81.66;102145.44;5030207;28;20025;-73
2021/07/18 05:35:12;;;;;;;13.25;7.15;;;;;;;17.37;81.49;102149.19;5022119;28;20038;-73
2021/07/18 05:37:38;;;;;;;19.05;7.15;;;;;;;17.47;81.07;102147.19;5035726;28;20037;-73
2021/07/18 05:40:05;;;;;;;10.05;6.20;;;;;;;17.62;80.43;102152.56;5028038;28;20037;-75
2021/07/18 05:42:31;;;;;;;13.48;6.80;;;;;;;17.74;80.31;102159.03;5026373;28;20038;-74
2021/07/18 05:44:56;;;;;;;13.35;6.20;;;;;;;17.88;79.69;102155.75;5022876;28;20025;-74
2021/07/18 05:47:22;;;;;;;10.15;6.47;;;;;;;18.04;78.96;102160.06;5010921;28;20575;-75
2021/07/18 05:49:47;;;;;;;12.63;6.80;;;;;;;18.23;78.61;102164.09;5025488;28;20044;-74
2021/07/18 05:52:13;;;;;;;13.15;6.50;;;;;;;18.43;77.88;102159.19;5024072;28;20032;-72
2021/07/18 05:54:38;;;;;;;11.63;6.00;;;;;;;18.59;77.05;102152.16;5018589;28;20537;-73
2021/07/18 05:57:04;;;;;;;13.15;6.25;;;;;;;18.79;76.06;102158.56;5027841;28;20026;-73
2021/07/18 05:59:30;;;;;;;14.98;7.05;;;;;;;19.01;74.86;102162.19;5023459;28;20037;-73
2021/07/18 06:01:55;;;;;;;9.73;6.53;;;;;;;19.12;74.33;102163.56;5029963;28;20131;-72
2021/07/18 06:04:21;;;;;;;8.20;5.80;;;;;;;19.45;73.30;102158.75;5035314;28;20037;-73
2021/07/18 06:06:46;;;;;;;11.40;5.28;;;;;;;19.77;72.36;102153.31;5024156;28;20034;-73
2021/07/18 06:09:12;;;;;;;9.75;5.75;;;;;;;20.00;70.68;102159.28;5027721;28;20029;-73
2021/07/18 06:11:37;;;;;;;10.68;5.53;;;;;;;20.20;70.32;102158.66;5024684;28;20036;-73
2021/07/18 06:14:02;;;;;;;9.98;5.72;;;;;;;20.44;70.04;102157.47;5027744;28;20034;-73
2021/07/18 06:16:28;;;;;;;11.35;4.72;;;;;;;20.77;69.16;102151.69;5025456;28;20061;-73
2021/07/18 06:18:54;;;;;;;7.60;5.53;;;;;;;20.86;68.58;102160.28;5029042;28;20040;-75
2021/07/18 06:21:19;;;;;;;7.45;5.30;;;;;;;21.07;67.55;102156.78;5021342;28;20088;-73
2021/07/18 06:23:45;;;;;;;12.57;5.90;;;;;;;21.34;66.75;102155.94;5018810;28;20037;-74
2021/07/18 06:26:11;;;;;;;10.00;5.57;;;;;;;21.57;66.42;102160.13;5028064;28;20038;-74
2021/07/18 06:28:37;;;;;;;12.52;4.72;;;;;;;21.72;65.35;102160.81;5026810;28;20437;-73
2021/07/18 06:31:02;;;;;;;6.80;4.43;;;;;;;21.96;64.77;102156.81;5023141;28;20037;-73
2021/07/18 06:33:28;;;;;;;8.52;3.70;;;;;;;22.20;64.00;102157.25;5028083;28;20546;-73
2021/07/18 06:35:54;;;;;;;7.10;5.07;;;;;;;22.42;62.72;102159.78;5025192;28;20032;-73
2021/07/18 06:38:19;;;;;;;7.40;4.10;;;;;;;22.60;62.38;102162.59;5034966;28;20494;-75
2021/07/18 06:40:45;;;;;;;6.80;4.07;;;;;;;22.86;61.49;102166.25;5023538;28;20044;-74
2021/07/18 06:43:11;;;;;;;9.77;3.83;;;;;;;23.02;60.28;102176.44;5024010;28;20045;-74
2021/07/18 06:45:36;;;;;;;8.38;3.80;;;;;;;23.09;60.02;102169.34;5027772;28;20032;-74
2021/07/18 06:48:02;;;;;;;6.22;3.92;;;;;;;23.08;60.00;102170.34;5022254;28;20660;-75
2021/07/18 06:50:28;;;;;;;8.02;4.20;;;;;;;23.23;59.49;102161.34;5023986;28;20394;-74
2021/07/18 06:52:53;;;;;;;6.90;3.50;;;;;;;23.40;58.95;102165.16;5030468;28;20037;-73
2021/07/18 06:55:19;;;;;;;8.18;4.28;;;;;;;23.59;58.05;102160.81;5030304;28;20029;-76
2021/07/18 06:57:48;;;;;;;8.20;3.65;;;;;;;23.95;57.74;102159.44;5025344;28;20087;-74
2021/07/18 07:00:15;;;;;;;15.85;8.55;;;;;;;23.88;55.96;102154.22;5025205;28;20037;-75
2021/07/18 07:02:40;;;;;;;14.60;6.68;;;;;;;24.01;56.31;102160.44;5035461;28;20065;-75
2021/07/18 07:05:06;;;;;;;7.65;4.70;;;;;;;24.29;55.73;102158.19;5023253;28;20056;-73
2021/07/18 07:07:31;;;;;;;7.00;3.70;;;;;;;24.53;55.08;102155.81;5022273;28;20044;-75
2021/07/18 07:09:57;;;;;;;9.80;3.70;;;;;;;25.01;54.38;102163.13;5003511;28;20034;-75
2021/07/18 07:12:24;;;;;;;10.77;4.53;;;;;;;24.72;54.62;102151.38;5023715;28;20029;-75
2021/07/18 07:14:50;;;;;;;8.75;3.78;;;;;;;25.04;52.79;102152.06;5030822;28;20041;-75
2021/07/18 07:17:15;;;;;;;6.00;3.95;;;;;;;25.01;53.12;102149.84;5044110;28;20025;-74
2021/07/18 07:19:41;;;;;;;6.95;3.40;;;;;;;25.17;53.54;102153.78;5027780;28;20399;-75
2021/07/18 07:22:07;;;;;;;6.57;3.15;;;;;;;25.58;52.36;102151.47;5029427;28;20371;-74
2021/07/18 07:24:32;;;;;;;8.18;2.60;;;;;;;25.77;50.84;102155.75;5030659;28;20644;-76
2021/07/18 07:26:58;;;;;;;4.35;2.28;;;;;;;26.02;50.35;102160.13;5029232;28;20113;-76
2021/07/18 07:29:23;;;;;;;6.65;2.33;;;;;;;26.26;50.01;102155.66;5025258;28;20424;-75
2021/07/18 07:31:49;;;;;;;8.55;2.92;;;;;;;26.45;48.99;102153.72;5021312;28;20037;-74
2021/07/18 07:34:14;;;;;;;8.40;3.25;;;;;;;26.54;49.46;102152.34;5026973;28;20041;-76
2021/07/18 07:36:40;;;;;;;8.63;2.80;;;;;;;26.59;48.16;102157.78;5034509;28;20045;-75
2021/07/18 07:39:05;;;;;;;4.65;2.03;;;;;;;26.71;48.79;102149.84;5031184;28;20037;-73
2021/07/18 07:41:31;;;;;;;5.15;2.42;;;;;;;26.98;48.27;102154.66;5025623;28;20030;-74
2021/07/18 07:43:59;;;;;;;6.50;2.40;;;;;;;26.79;46.64;102146.81;5030069;28;20029;-75
2021/07/18 07:46:25;;;;;;;5.43;2.45;;;;;;;26.92;46.51;102151.09;5030323;28;20086;-75
2021/07/18 07:48:51;;;;;;;7.90;2.15;;;;;;;26.76;47.00;102155.25;5030595;28;20025;-74
2021/07/18 07:51:16;;;;;;;7.95;2.05;;;;;;;26.98;46.75;102147.50;5025098;28;20055;-75
2021/07/18 07:53:42;;;;;;;5.28;2.10;;;;;;;27.11;46.40;102146.44;5033404;28;20029;-73
2021/07/18 07:56:07;;;;;;;4.78;2.58;;;;;;;27.09;46.23;102137.88;5028536;28;20541;-75
2021/07/18 07:58:33;;;;;;;4.93;1.42;;;;;;;27.43;46.41;102143.38;5027338;28;20034;-75
2021/07/18 08:00:59;;;;;;;4.57;1.80;;;;;;;27.61;45.85;102145.03;5025457;28;20456;-75
2021/07/18 08:03:25;;;;;;;7.38;1.85;;;;;;;27.67;44.51;102146.75;5020832;28;20037;-75
2021/07/18 08:05:51;;;;;;;5.28;1.60;;;;;;;27.81;44.35;102141.13;5025564;28;20032;-74
2021/07/18 08:08:16;;;;;;;5.18;1.75;;;;;;;27.67;44.98;102137.94;5008882;28;20560;-75
2021/07/18 08:10:42;;;;;;;4.13;1.95;;;;;;;27.43;45.25;102139.91;5030292;28;20040;-75
2021/07/18 08:13:07;;;;;;;5.47;1.77;;;;;;;27.71;45.00;102139.09;5020428;28;20065;-75
2021/07/18 08:15:34;;;;;;;1.63;1.23;;;;;;;27.66;44.47;102142.47;5025810;28;20029;-75
2021/07/18 08:17:59;;;;;;;4.47;1.52;;;;;;;27.79;43.58;102137.91;5026616;28;20445;-76
2021/07/18 08:20:26;;;;;;;2.35;1.02;;;;;;;28.00;43.19;102131.09;5019930;28;20044;-75
2021/07/18 08:22:53;;;;;;;6.68;1.50;;;;;;;27.97;42.59;102129.69;5025057;28;20120;-75
2021/07/18 08:25:21;;;;;;;5.45;1.35;;;;;;;27.81;42.90;102133.13;5021426;28;20045;-76
2021/07/18 08:27:47;;;;;;;2.25;1.10;;;;;;;27.88;43.84;102136.47;5026038;28;20041;-76
2021/07/18 08:30:13;;;;;;;3.15;1.60;;;;;;;28.25;43.68;102130.69;5036597;28;20383;-80
2021/07/18 08:32:39;;;;;;;4.90;1.10;;;;;;;28.27;42.90;102125.91;5036652;28;20033;-76
2021/07/18 08:35:06;;;;;;;4.03;1.27;;;;;;;28.48;43.12;102138.53;5028258;28;20176;-76
2021/07/18 08:37:32;;;;;;;3.67;1.13;;;;;;;28.73;42.18;102127.41;5035418;28;20047;-75
2021/07/18 08:39:58;;;;;;;3.10;1.13;;;;;;;28.91;41.77;102126.34;5028493;28;20112;-76
2021/07/18 08:42:24;;;;;;;2.72;1.20;;;;;;;28.98;41.05;102125.34;5028536;28;20163;-75
2021/07/18 08:44:49;;;;;;;3.63;1.17;;;;;;;29.00;41.30;102128.56;5025296;28;20513;-75
2021/07/18 08:47:19;;;;;;;4.60;2.03;;;;;;;29.22;41.71;102126.72;5031108;28;20069;-75
2021/07/18 08:49:46;;;;;;;3.35;1.20;;;;;;;29.08;41.90;102122.78;5026941;28;20529;-75
2021/07/18 08:52:12;;;;;;;4.03;1.23;;;;;;;29.03;41.00;102120.88;5039600;28;20032;-76
2021/07/18 08:54:38;;;;;;;2.67;1.35;;;;;;;29.17;41.29;102126.66;5027021;28;20068;-75
2021/07/18 08:57:04;;;;;;;3.03;1.20;;;;;;;29.31;40.97;102127.09;5034703;28;20029;-77
2021/07/18 08:59:30;;;;;;;2.35;1.25;;;;;;;28.90;41.05;102114.03;5018149;28;20041;-75
2021/07/18 09:01:56;;;;;;;2.33;1.02;;;;;;;28.68;41.47;102113.19;5018107;28;20250;-77
2021/07/18 09:04:22;;;;;;;3.53;1.02;;;;;;;28.84;40.81;102116.88;5017267;28;20446;-75
2021/07/18 09:06:49;;;;;;;2.35;1.15;;;;;;;28.88;41.32;102110.00;5023559;28;20033;-76
2021/07/18 09:09:18;;;;;;;2.47;0.80;;;;;;;29.23;40.49;102112.28;5025925;28;20109;-76
2021/07/18 09:11:54;;;;;;;1.90;1.27;;;;;;;29.09;41.18;102119.84;5017325;28;20041;-77
2021/07/18 09:14:19;;;;;;;3.80;1.20;;;;;;;28.65;41.33;102111.00;5015863;28;20060;-75
2021/07/18 09:16:49;;;;;;;3.95;1.52;;;;;;;28.73;41.15;102116.75;5013384;28;20072;-76
2021/07/18 09:19:23;;;;;;;2.55;1.20;;;;;;;28.95;41.23;102112.47;5029181;28;20582;-76
2021/07/18 09:22:08;;;;;;;3.30;0.82;;;;;;;29.30;40.76;102106.78;5027586;28;20087;-75
2021/07/18 09:24:37;;;;;;;4.25;1.00;;;;;;;28.86;41.36;102109.44;5033213;28;20029;-76
2021/07/18 09:27:07;;;;;;;3.03;1.33;;;;;;;28.69;41.29;102112.97;5015792;28;20032;-75
2021/07/18 09:29:36;;;;;;;2.83;1.00;;;;;;;28.78;41.04;102110.66;5032985;28;20041;-76
2021/07/18 09:32:08;;;;;;;4.57;1.33;;;;;;;28.78;41.72;102107.19;5033494;28;20032;-78
2021/07/18 09:34:42;;;;;;;3.65;1.38;;;;;;;29.10;42.62;102099.31;5038355;28;20445;-75
2021/07/18 09:37:14;;;;;;;3.97;1.75;;;;;;;29.19;42.04;102105.84;5036063;28;20682;-77
2021/07/18 09:39:45;;;;;;;;;;;;;;;29.27;41.11;102101.91;5016312;28;20280;-75
2021/07/18 09:42:44;;;;;;;5.28;1.67;;;;;;;29.37;42.16;102099.38;5027029;28;19921;-75
2021/07/18 09:45:16;;;;;;;2.20;1.13;;;;;;;28.99;41.32;102094.91;5011613;28;20050;-76
2021/07/18 09:48:00;;;;;;;3.85;1.27;;;;;;;28.98;43.35;102096.78;5002181;28;20080;-80
2021/07/18 09:50:37;;;;;;;4.35;1.40;;;;;;;29.20;41.48;102104.00;5033265;28;20938;-76
2021/07/18 09:53:29;;;;;;;2.08;1.20;;;;;;;29.14;42.46;102094.31;5030619;28;20026;-76
2021/07/18 09:56:00;;;;;;;2.53;1.30;;;;;;;29.03;41.07;102096.03;5030565;28;20055;-77
2021/07/18 09:58:28;;;;;;;3.15;1.20;;;;;;;28.87;41.41;102098.50;5013667;28;20113;-76
2021/07/18 10:00:54;;;;;;;2.78;1.20;;;;;;;29.14;39.76;102091.63;5038549;28;20058;-76
2021/07/18 10:03:23;;;;;;;2.13;1.38;;;;;;;28.99;40.79;102081.56;5028033;28;20033;-75
2021/07/18 10:06:08;;;;;;;4.03;1.25;;;;;;;28.98;40.51;102090.63;5041789;28;20036;-77
2021/07/18 10:08:37;;;;;;;2.53;1.08;;;;;;;28.93;41.25;102086.03;5031157;28;20037;-77
2021/07/18 10:11:03;;;;;;;3.10;1.20;;;;;;;28.74;42.06;102090.88;5028461;28;20120;-77
2021/07/18 10:13:30;;;;;;;4.63;1.10;;;;;;;28.96;41.33;102088.22;5027536;28;20964;-76
2021/07/18 10:15:56;;;;;;;2.20;0.80;;;;;;;29.07;40.57;102086.47;5030422;28;20037;-76
2021/07/18 10:18:21;;;;;;;3.20;1.10;;;;;;;29.06;40.80;102076.84;5035623;28;20103;-76
2021/07/18 10:20:47;;;;;;;3.75;1.42;;;;;;;28.72;41.36;102075.09;5038171;28;20124;-76
2021/07/18 10:23:15;;;;;;;4.55;1.40;;;;;;;28.58;41.03;102071.19;5026840;28;20048;-75
2021/07/18 10:25:42;;;;;;;2.60;1.20;;;;;;;28.36;42.18;102068.47;5032876;28;20045;-78
2021/07/18 10:28:09;;;;;;;3.00;1.20;;;;;;;28.25;42.66;102074.69;5035158;28;20554;-76
2021/07/18 10:30:35;;;;;;;2.20;1.20;;;;;;;28.58;41.43;102067.72;5034924;28;20037;-75
2021/07/18 10:33:01;;;;;;;3.58;1.40;;;;;;;28.88;42.33;102070.78;5027065;28;20030;-76
2021/07/18 10:35:30;;;;;;;3.20;1.95;;;;;;;28.87;41.09;102066.47;5036300;28;20038;-77
2021/07/18 10:38:13;;;;;;;2.92;1.17;;;;;;;28.73;42.36;102065.25;5035634;28;20386;-76
2021/07/18 10:40:49;;;;;;;2.95;1.33;;;;;;;29.24;41.21;102057.84;5038123;28;20460;-75
2021/07/18 10:43:38;;;;;;;2.22;1.20;;;;;;;29.00;42.51;102056.47;5034050;28;20383;-76
2021/07/18 10:46:05;;;;;;;2.30;1.15;;;;;;;29.06;42.28;102052.81;5041878;28;20036;-75
2021/07/18 10:48:48;;;;;;;2.72;1.20;;;;;;;29.19;42.19;102060.44;5031373;28;20508;-76
2021/07/18 10:51:21;;;;;;;1.38;1.17;;;;;;;29.22;40.11;102061.84;5021314;28;20038;-76
2021/07/18 10:53:49;;;;;;;4.82;1.60;;;;;;;29.09;40.17;102063.78;5018646;28;20402;-74
2021/07/18 10:56:19;;;;;;;2.55;1.60;;;;;;;28.89;42.99;102059.03;5028737;28;20052;-76
2021/07/18 10:58:47;;;;;;;4.45;1.20;;;;;;;28.95;44.75;102054.56;5023387;28;20075;-75
2021/07/18 11:01:21;;;;;;;3.85;1.45;;;;;;;28.71;42.20;102052.16;5034680;28;20075;-76
2021/07/18 11:03:48;;;;;;;5.82;1.60;;;;;;;28.88;42.37;102048.63;5023905;28;20038;-75
2021/07/18 11:06:22;;;;;;;3.60;1.48;;;;;;;29.09;41.62;102038.97;5027101;28;20479;-75
2021/07/18 11:09:06;;;;;;;4.75;1.52;;;;;;;29.16;41.51;102042.28;5024377;28;20148;-77
2021/07/18 11:11:45;;;;;;;3.05;1.50;;;;;;;29.37;41.62;102043.28;5021227;28;20120;-77
2021/07/18 11:14:20;;;;;;;3.00;1.40;;;;;;;29.28;42.25;102042.13;5029439;28;20056;-77
2021/07/18 11:16:50;;;;;;;4.43;1.40;;;;;;;29.19;42.62;102041.75;5016881;28;20349;-77
2021/07/18 11:19:57;;;;;;;1.85;1.40;;;;;;;29.12;41.64;102049.97;5018623;28;20482;-76
2021/07/18 11:23:02;;;;;;;2.92;1.70;;;;;;;29.33;41.07;102039.50;5023075;28;20041;-77
2021/07/18 11:25:37;;;;;;;3.53;1.40;;;;;;;28.99;42.24;102042.34;5057612;28;20075;-76